Gwarzo, Nigeria
Current Conditions -  °F | °C
As of 6:00 AM on Sunday 23 Nov 2014 (Local Time) from DNKN Reporting Station
Clear Clear  
Wind Chill: 55°   Ceiling: Unl
Heat Index: 55°   Visibility: 4mi
Dew Point: 43°   Wind: 8mph
Humidity: 63%   Direction: 20°NNE
Pressure: 30.03"   Gusts: NA
Location:  11.91°N, 7.94°E
Report Text: DNKN 230500Z 02007KT 7000 NSW NSC 13/06 Q1017 NOSIG
Loading
Personal Weather Stations






























Interactive Weather Map New forecast layout! Learn more

10-Day Weather Forecast

Advertisements
Track Severe Weather on mobile